sensor_id;sensor_type;location;lat;lon;timestamp;P1;durP1;ratioP1;P2;durP2;ratioP2
18997;SDS011;9632;51.018;4.284;2022-10-10T00:01:02;8.30;;;3.45;;
18997;SDS011;9632;51.018;4.284;2022-10-10T00:03:28;6.85;;;3.78;;
18997;SDS011;9632;51.018;4.284;2022-10-10T00:05:53;7.55;;;3.67;;
18997;SDS011;9632;51.018;4.284;2022-10-10T00:08:20;7.00;;;3.70;;
18997;SDS011;9632;51.018;4.284;2022-10-10T00:10:45;8.68;;;3.70;;
18997;SDS011;9632;51.018;4.284;2022-10-10T00:13:11;8.02;;;3.88;;
18997;SDS011;9632;51.018;4.284;2022-10-10T00:15:36;8.45;;;3.67;;
18997;SDS011;9632;51.018;4.284;2022-10-10T00:18:02;8.02;;;3.90;;
18997;SDS011;9632;51.018;4.284;2022-10-10T00:20:28;6.93;;;3.53;;
18997;SDS011;9632;51.018;4.284;2022-10-10T00:22:54;9.27;;;3.92;;
18997;SDS011;9632;51.018;4.284;2022-10-10T00:25:19;6.72;;;3.90;;
18997;SDS011;9632;51.018;4.284;2022-10-10T00:27:45;7.93;;;4.32;;
18997;SDS011;9632;51.018;4.284;2022-10-10T00:30:11;8.55;;;4.00;;
18997;SDS011;9632;51.018;4.284;2022-10-10T00:32:37;5.68;;;3.67;;
18997;SDS011;9632;51.018;4.284;2022-10-10T00:35:03;6.03;;;3.70;;
18997;SDS011;9632;51.018;4.284;2022-10-10T00:37:29;6.15;;;3.83;;
18997;SDS011;9632;51.018;4.284;2022-10-10T00:39:55;7.10;;;4.00;;
18997;SDS011;9632;51.018;4.284;2022-10-10T00:42:20;9.38;;;4.20;;
18997;SDS011;9632;51.018;4.284;2022-10-10T00:44:46;7.25;;;3.85;;
18997;SDS011;9632;51.018;4.284;2022-10-10T00:47:43;9.52;;;4.20;;
18997;SDS011;9632;51.018;4.284;2022-10-10T00:50:09;9.32;;;4.15;;
18997;SDS011;9632;51.018;4.284;2022-10-10T00:52:35;9.18;;;4.50;;
18997;SDS011;9632;51.018;4.284;2022-10-10T00:55:01;7.97;;;4.10;;
18997;SDS011;9632;51.018;4.284;2022-10-10T00:57:27;10.98;;;4.32;;
18997;SDS011;9632;51.018;4.284;2022-10-10T00:59:53;8.48;;;4.53;;
18997;SDS011;9632;51.018;4.284;2022-10-10T01:02:19;6.45;;;3.85;;
18997;SDS011;9632;51.018;4.284;2022-10-10T01:04:44;6.95;;;4.28;;
18997;SDS011;9632;51.018;4.284;2022-10-10T01:07:12;6.30;;;3.85;;
18997;SDS011;9632;51.018;4.284;2022-10-10T01:09:40;7.60;;;3.67;;
18997;SDS011;9632;51.018;4.284;2022-10-10T01:18:09;8.18;;;3.80;;
18997;SDS011;9632;51.018;4.284;2022-10-10T01:28:38;6.97;;;3.25;;
18997;SDS011;9632;51.018;4.284;2022-10-10T01:31:21;6.13;;;3.50;;
18997;SDS011;9632;51.018;4.284;2022-10-10T01:34:01;8.23;;;3.80;;
18997;SDS011;9632;51.018;4.284;2022-10-10T01:41:39;9.90;;;4.20;;
18997;SDS011;9632;51.018;4.284;2022-10-10T01:44:11;9.50;;;4.18;;
18997;SDS011;9632;51.018;4.284;2022-10-10T01:46:38;8.70;;;3.90;;
18997;SDS011;9632;51.018;4.284;2022-10-10T01:49:04;5.95;;;3.60;;
18997;SDS011;9632;51.018;4.284;2022-10-10T02:00:11;7.97;;;4.05;;
18997;SDS011;9632;51.018;4.284;2022-10-10T02:07:57;8.02;;;3.75;;
18997;SDS011;9632;51.018;4.284;2022-10-10T02:10:31;9.02;;;3.70;;
18997;SDS011;9632;51.018;4.284;2022-10-10T02:13:00;8.63;;;3.55;;
18997;SDS011;9632;51.018;4.284;2022-10-10T02:15:30;7.15;;;3.58;;
18997;SDS011;9632;51.018;4.284;2022-10-10T02:18:03;6.78;;;3.75;;
18997;SDS011;9632;51.018;4.284;2022-10-10T02:20:31;7.85;;;3.75;;
18997;SDS011;9632;51.018;4.284;2022-10-10T02:22:57;7.70;;;3.60;;
18997;SDS011;9632;51.018;4.284;2022-10-10T02:25:27;6.18;;;3.25;;
18997;SDS011;9632;51.018;4.284;2022-10-10T02:30:32;8.10;;;3.42;;
18997;SDS011;9632;51.018;4.284;2022-10-10T02:33:00;6.13;;;3.45;;
18997;SDS011;9632;51.018;4.284;2022-10-10T02:35:32;6.55;;;3.45;;
18997;SDS011;9632;51.018;4.284;2022-10-10T02:38:01;7.20;;;3.50;;
18997;SDS011;9632;51.018;4.284;2022-10-10T02:40:30;6.75;;;3.80;;
18997;SDS011;9632;51.018;4.284;2022-10-10T02:42:59;5.85;;;3.40;;
18997;SDS011;9632;51.018;4.284;2022-10-10T02:45:26;9.02;;;3.70;;
18997;SDS011;9632;51.018;4.284;2022-10-10T02:47:53;5.53;;;3.30;;
18997;SDS011;9632;51.018;4.284;2022-10-10T02:50:19;5.93;;;3.38;;
18997;SDS011;9632;51.018;4.284;2022-10-10T02:52:46;5.60;;;3.20;;
18997;SDS011;9632;51.018;4.284;2022-10-10T02:55:12;9.57;;;3.80;;
18997;SDS011;9632;51.018;4.284;2022-10-10T02:57:37;7.05;;;3.50;;
18997;SDS011;9632;51.018;4.284;2022-10-10T03:00:04;6.30;;;3.10;;
18997;SDS011;9632;51.018;4.284;2022-10-10T03:02:30;7.65;;;3.58;;
18997;SDS011;9632;51.018;4.284;2022-10-10T03:04:56;6.72;;;3.80;;
18997;SDS011;9632;51.018;4.284;2022-10-10T03:07:23;5.97;;;3.53;;
18997;SDS011;9632;51.018;4.284;2022-10-10T03:09:49;6.82;;;3.05;;
18997;SDS011;9632;51.018;4.284;2022-10-10T03:12:15;4.78;;;2.92;;
18997;SDS011;9632;51.018;4.284;2022-10-10T03:14:41;6.13;;;3.08;;
18997;SDS011;9632;51.018;4.284;2022-10-10T03:17:07;5.75;;;3.13;;
18997;SDS011;9632;51.018;4.284;2022-10-10T03:19:33;6.25;;;2.90;;
18997;SDS011;9632;51.018;4.284;2022-10-10T03:21:59;6.53;;;3.00;;
18997;SDS011;9632;51.018;4.284;2022-10-10T03:24:25;6.45;;;2.80;;
18997;SDS011;9632;51.018;4.284;2022-10-10T03:26:51;7.28;;;3.03;;
18997;SDS011;9632;51.018;4.284;2022-10-10T03:29:16;5.85;;;2.85;;
18997;SDS011;9632;51.018;4.284;2022-10-10T03:31:45;4.15;;;2.60;;
18997;SDS011;9632;51.018;4.284;2022-10-10T03:34:10;5.88;;;2.60;;
18997;SDS011;9632;51.018;4.284;2022-10-10T03:36:36;9.05;;;2.50;;
18997;SDS011;9632;51.018;4.284;2022-10-10T03:39:02;5.63;;;2.95;;
18997;SDS011;9632;51.018;4.284;2022-10-10T03:41:28;8.15;;;2.97;;
18997;SDS011;9632;51.018;4.284;2022-10-10T03:43:54;5.90;;;2.92;;
18997;SDS011;9632;51.018;4.284;2022-10-10T03:46:20;8.25;;;3.28;;
18997;SDS011;9632;51.018;4.284;2022-10-10T03:48:45;5.68;;;2.78;;
18997;SDS011;9632;51.018;4.284;2022-10-10T03:51:11;5.70;;;2.60;;
18997;SDS011;9632;51.018;4.284;2022-10-10T03:53:37;5.03;;;2.80;;
18997;SDS011;9632;51.018;4.284;2022-10-10T03:56:03;5.85;;;2.78;;
18997;SDS011;9632;51.018;4.284;2022-10-10T03:58:29;4.97;;;2.70;;
18997;SDS011;9632;51.018;4.284;2022-10-10T04:00:55;6.47;;;2.97;;
18997;SDS011;9632;51.018;4.284;2022-10-10T04:03:22;4.25;;;2.40;;
18997;SDS011;9632;51.018;4.284;2022-10-10T04:05:49;4.90;;;2.50;;
18997;SDS011;9632;51.018;4.284;2022-10-10T04:08:15;3.85;;;2.30;;
18997;SDS011;9632;51.018;4.284;2022-10-10T04:10:41;4.30;;;2.55;;
18997;SDS011;9632;51.018;4.284;2022-10-10T04:13:06;4.95;;;2.70;;
18997;SDS011;9632;51.018;4.284;2022-10-10T04:15:32;7.88;;;2.90;;
18997;SDS011;9632;51.018;4.284;2022-10-10T04:17:58;5.82;;;2.67;;
18997;SDS011;9632;51.018;4.284;2022-10-10T04:20:24;4.35;;;2.28;;
18997;SDS011;9632;51.018;4.284;2022-10-10T04:22:52;7.47;;;2.92;;
18997;SDS011;9632;51.018;4.284;2022-10-10T04:25:18;9.65;;;3.30;;
18997;SDS011;9632;51.018;4.284;2022-10-10T04:27:44;7.60;;;2.80;;
18997;SDS011;9632;51.018;4.284;2022-10-10T04:30:09;10.10;;;2.80;;
18997;SDS011;9632;51.018;4.284;2022-10-10T04:32:35;6.45;;;2.80;;
18997;SDS011;9632;51.018;4.284;2022-10-10T04:35:02;10.48;;;3.17;;
18997;SDS011;9632;51.018;4.284;2022-10-10T04:37:28;9.98;;;2.83;;
18997;SDS011;9632;51.018;4.284;2022-10-10T04:39:53;11.15;;;3.58;;
18997;SDS011;9632;51.018;4.284;2022-10-10T04:42:19;8.13;;;3.38;;
18997;SDS011;9632;51.018;4.284;2022-10-10T04:44:44;9.10;;;3.58;;
18997;SDS011;9632;51.018;4.284;2022-10-10T04:47:10;9.80;;;3.75;;
18997;SDS011;9632;51.018;4.284;2022-10-10T04:49:36;8.05;;;3.63;;
18997;SDS011;9632;51.018;4.284;2022-10-10T04:52:02;10.30;;;3.70;;
18997;SDS011;9632;51.018;4.284;2022-10-10T04:54:28;8.60;;;3.20;;
18997;SDS011;9632;51.018;4.284;2022-10-10T04:56:54;7.93;;;3.33;;
18997;SDS011;9632;51.018;4.284;2022-10-10T04:59:20;7.60;;;2.90;;
18997;SDS011;9632;51.018;4.284;2022-10-10T05:01:46;8.32;;;3.15;;
18997;SDS011;9632;51.018;4.284;2022-10-10T05:04:11;6.03;;;2.80;;
18997;SDS011;9632;51.018;4.284;2022-10-10T05:06:38;7.50;;;3.28;;
18997;SDS011;9632;51.018;4.284;2022-10-10T05:09:04;6.85;;;2.90;;
18997;SDS011;9632;51.018;4.284;2022-10-10T05:11:30;7.47;;;2.80;;
18997;SDS011;9632;51.018;4.284;2022-10-10T05:13:55;8.05;;;2.97;;
18997;SDS011;9632;51.018;4.284;2022-10-10T05:16:21;8.65;;;3.38;;
18997;SDS011;9632;51.018;4.284;2022-10-10T05:18:46;5.60;;;2.95;;
18997;SDS011;9632;51.018;4.284;2022-10-10T05:21:12;7.70;;;3.05;;
18997;SDS011;9632;51.018;4.284;2022-10-10T05:23:38;11.23;;;3.38;;
18997;SDS011;9632;51.018;4.284;2022-10-10T05:26:05;8.73;;;3.45;;
18997;SDS011;9632;51.018;4.284;2022-10-10T05:28:32;7.18;;;3.35;;
18997;SDS011;9632;51.018;4.284;2022-10-10T05:30:59;7.50;;;3.35;;
18997;SDS011;9632;51.018;4.284;2022-10-10T05:33:25;7.90;;;2.85;;
18997;SDS011;9632;51.018;4.284;2022-10-10T05:35:50;8.73;;;2.90;;
18997;SDS011;9632;51.018;4.284;2022-10-10T05:38:16;7.25;;;2.88;;
18997;SDS011;9632;51.018;4.284;2022-10-10T05:40:42;5.93;;;2.83;;
18997;SDS011;9632;51.018;4.284;2022-10-10T05:43:07;6.03;;;2.60;;
18997;SDS011;9632;51.018;4.284;2022-10-10T05:45:33;8.43;;;3.50;;
18997;SDS011;9632;51.018;4.284;2022-10-10T05:47:59;10.25;;;3.33;;
18997;SDS011;9632;51.018;4.284;2022-10-10T05:50:27;8.23;;;2.85;;
18997;SDS011;9632;51.018;4.284;2022-10-10T05:52:56;9.60;;;3.58;;
18997;SDS011;9632;51.018;4.284;2022-10-10T05:55:22;8.98;;;3.00;;
18997;SDS011;9632;51.018;4.284;2022-10-10T05:57:48;5.78;;;3.00;;
18997;SDS011;9632;51.018;4.284;2022-10-10T06:00:14;8.77;;;3.00;;
18997;SDS011;9632;51.018;4.284;2022-10-10T06:02:39;8.20;;;2.97;;
18997;SDS011;9632;51.018;4.284;2022-10-10T06:05:05;6.63;;;2.67;;
18997;SDS011;9632;51.018;4.284;2022-10-10T06:07:31;8.10;;;3.05;;
18997;SDS011;9632;51.018;4.284;2022-10-10T06:09:57;8.35;;;3.00;;
18997;SDS011;9632;51.018;4.284;2022-10-10T06:12:23;5.70;;;3.20;;
18997;SDS011;9632;51.018;4.284;2022-10-10T06:14:51;6.13;;;2.67;;
18997;SDS011;9632;51.018;4.284;2022-10-10T06:17:16;7.82;;;3.00;;
18997;SDS011;9632;51.018;4.284;2022-10-10T06:19:42;11.15;;;3.13;;
18997;SDS011;9632;51.018;4.284;2022-10-10T06:22:07;8.88;;;3.47;;
18997;SDS011;9632;51.018;4.284;2022-10-10T06:24:33;6.60;;;3.30;;
18997;SDS011;9632;51.018;4.284;2022-10-10T06:26:59;10.55;;;3.22;;
18997;SDS011;9632;51.018;4.284;2022-10-10T06:29:24;5.50;;;2.95;;
18997;SDS011;9632;51.018;4.284;2022-10-10T06:31:50;11.80;;;3.47;;
18997;SDS011;9632;51.018;4.284;2022-10-10T06:34:16;7.10;;;3.20;;
18997;SDS011;9632;51.018;4.284;2022-10-10T06:36:41;7.43;;;3.03;;
18997;SDS011;9632;51.018;4.284;2022-10-10T06:39:07;6.85;;;3.50;;
18997;SDS011;9632;51.018;4.284;2022-10-10T06:41:32;8.25;;;3.38;;
18997;SDS011;9632;51.018;4.284;2022-10-10T06:43:58;9.55;;;3.40;;
18997;SDS011;9632;51.018;4.284;2022-10-10T06:46:24;11.05;;;3.70;;
18997;SDS011;9632;51.018;4.284;2022-10-10T06:48:49;10.93;;;4.00;;
18997;SDS011;9632;51.018;4.284;2022-10-10T06:51:15;11.48;;;3.60;;
18997;SDS011;9632;51.018;4.284;2022-10-10T06:53:42;9.18;;;3.58;;
18997;SDS011;9632;51.018;4.284;2022-10-10T06:56:09;12.20;;;3.63;;
18997;SDS011;9632;51.018;4.284;2022-10-10T06:58:41;10.77;;;3.55;;
18997;SDS011;9632;51.018;4.284;2022-10-10T07:01:08;8.50;;;3.30;;
18997;SDS011;9632;51.018;4.284;2022-10-10T07:03:34;8.52;;;3.50;;
18997;SDS011;9632;51.018;4.284;2022-10-10T07:06:00;9.18;;;3.22;;
18997;SDS011;9632;51.018;4.284;2022-10-10T07:08:27;14.63;;;4.28;;
18997;SDS011;9632;51.018;4.284;2022-10-10T07:10:53;6.57;;;3.28;;
18997;SDS011;9632;51.018;4.284;2022-10-10T07:13:19;10.10;;;3.72;;
18997;SDS011;9632;51.018;4.284;2022-10-10T07:15:45;5.28;;;3.08;;
18997;SDS011;9632;51.018;4.284;2022-10-10T07:18:10;12.65;;;3.00;;
18997;SDS011;9632;51.018;4.284;2022-10-10T07:20:36;12.68;;;3.58;;
18997;SDS011;9632;51.018;4.284;2022-10-10T07:23:03;9.95;;;3.40;;
18997;SDS011;9632;51.018;4.284;2022-10-10T07:25:29;6.28;;;3.10;;
18997;SDS011;9632;51.018;4.284;2022-10-10T07:27:55;13.50;;;3.58;;
18997;SDS011;9632;51.018;4.284;2022-10-10T07:30:21;5.80;;;3.00;;
18997;SDS011;9632;51.018;4.284;2022-10-10T07:32:51;15.18;;;3.50;;
18997;SDS011;9632;51.018;4.284;2022-10-10T07:35:18;9.52;;;3.40;;
18997;SDS011;9632;51.018;4.284;2022-10-10T07:37:44;11.68;;;3.42;;
18997;SDS011;9632;51.018;4.284;2022-10-10T07:40:09;10.15;;;3.10;;
18997;SDS011;9632;51.018;4.284;2022-10-10T07:42:35;15.80;;;3.78;;
18997;SDS011;9632;51.018;4.284;2022-10-10T07:45:01;7.85;;;3.30;;
18997;SDS011;9632;51.018;4.284;2022-10-10T07:47:27;18.33;;;4.25;;
18997;SDS011;9632;51.018;4.284;2022-10-10T07:49:52;14.98;;;4.18;;
18997;SDS011;9632;51.018;4.284;2022-10-10T07:52:18;9.75;;;3.50;;
18997;SDS011;9632;51.018;4.284;2022-10-10T07:54:44;12.05;;;2.97;;
18997;SDS011;9632;51.018;4.284;2022-10-10T07:57:10;11.95;;;3.38;;
18997;SDS011;9632;51.018;4.284;2022-10-10T07:59:36;12.10;;;3.65;;
18997;SDS011;9632;51.018;4.284;2022-10-10T08:02:02;11.15;;;3.00;;
18997;SDS011;9632;51.018;4.284;2022-10-10T08:04:27;11.40;;;3.10;;
18997;SDS011;9632;51.018;4.284;2022-10-10T08:06:53;13.40;;;3.10;;
18997;SDS011;9632;51.018;4.284;2022-10-10T08:09:19;12.82;;;3.10;;
18997;SDS011;9632;51.018;4.284;2022-10-10T08:11:44;11.65;;;3.10;;
18997;SDS011;9632;51.018;4.284;2022-10-10T08:14:10;8.30;;;2.88;;
18997;SDS011;9632;51.018;4.284;2022-10-10T08:16:35;12.27;;;3.20;;
18997;SDS011;9632;51.018;4.284;2022-10-10T08:19:01;11.48;;;3.33;;
18997;SDS011;9632;51.018;4.284;2022-10-10T08:21:27;13.95;;;2.90;;
18997;SDS011;9632;51.018;4.284;2022-10-10T08:23:54;10.48;;;2.80;;
18997;SDS011;9632;51.018;4.284;2022-10-10T08:26:19;10.55;;;3.10;;
18997;SDS011;9632;51.018;4.284;2022-10-10T08:28:45;12.07;;;2.55;;
18997;SDS011;9632;51.018;4.284;2022-10-10T08:31:14;10.65;;;3.05;;
18997;SDS011;9632;51.018;4.284;2022-10-10T08:33:42;8.63;;;2.75;;
18997;SDS011;9632;51.018;4.284;2022-10-10T08:36:11;10.13;;;3.00;;
18997;SDS011;9632;51.018;4.284;2022-10-10T08:38:41;8.38;;;2.47;;
18997;SDS011;9632;51.018;4.284;2022-10-10T08:41:13;9.07;;;2.70;;
18997;SDS011;9632;51.018;4.284;2022-10-10T08:47:00;9.48;;;2.70;;
18997;SDS011;9632;51.018;4.284;2022-10-10T08:49:34;9.60;;;2.55;;
18997;SDS011;9632;51.018;4.284;2022-10-10T08:54:54;9.45;;;2.70;;
18997;SDS011;9632;51.018;4.284;2022-10-10T08:57:23;9.18;;;2.83;;
18997;SDS011;9632;51.018;4.284;2022-10-10T08:59:53;9.38;;;2.42;;
18997;SDS011;9632;51.018;4.284;2022-10-10T09:02:34;12.02;;;2.47;;
18997;SDS011;9632;51.018;4.284;2022-10-10T09:05:00;8.75;;;2.90;;
18997;SDS011;9632;51.018;4.284;2022-10-10T09:07:54;9.93;;;2.95;;
18997;SDS011;9632;51.018;4.284;2022-10-10T09:16:51;14.10;;;2.90;;
18997;SDS011;9632;51.018;4.284;2022-10-10T09:19:18;9.95;;;2.78;;
18997;SDS011;9632;51.018;4.284;2022-10-10T09:22:07;12.82;;;3.10;;
18997;SDS011;9632;51.018;4.284;2022-10-10T09:24:50;6.55;;;2.60;;
18997;SDS011;9632;51.018;4.284;2022-10-10T09:27:24;11.80;;;2.97;;
18997;SDS011;9632;51.018;4.284;2022-10-10T09:32:33;14.32;;;2.92;;
18997;SDS011;9632;51.018;4.284;2022-10-10T09:37:43;14.02;;;2.92;;
18997;SDS011;9632;51.018;4.284;2022-10-10T09:43:11;8.90;;;2.60;;
18997;SDS011;9632;51.018;4.284;2022-10-10T09:45:43;14.63;;;3.25;;
18997;SDS011;9632;51.018;4.284;2022-10-10T09:48:12;10.43;;;3.00;;
18997;SDS011;9632;51.018;4.284;2022-10-10T09:50:38;8.48;;;2.90;;
18997;SDS011;9632;51.018;4.284;2022-10-10T09:53:04;18.25;;;3.15;;
18997;SDS011;9632;51.018;4.284;2022-10-10T09:55:33;11.93;;;2.90;;
18997;SDS011;9632;51.018;4.284;2022-10-10T09:58:14;9.40;;;2.50;;
18997;SDS011;9632;51.018;4.284;2022-10-10T10:00:46;8.50;;;2.65;;
18997;SDS011;9632;51.018;4.284;2022-10-10T10:05:38;10.57;;;3.22;;
18997;SDS011;9632;51.018;4.284;2022-10-10T10:08:15;11.32;;;3.20;;
18997;SDS011;9632;51.018;4.284;2022-10-10T10:10:43;11.77;;;2.88;;
18997;SDS011;9632;51.018;4.284;2022-10-10T10:13:20;11.15;;;2.30;;
18997;SDS011;9632;51.018;4.284;2022-10-10T10:15:49;12.52;;;3.30;;
18997;SDS011;9632;51.018;4.284;2022-10-10T10:18:23;11.50;;;2.70;;
18997;SDS011;9632;51.018;4.284;2022-10-10T10:20:53;13.48;;;3.63;;
18997;SDS011;9632;51.018;4.284;2022-10-10T10:23:39;13.95;;;3.22;;
18997;SDS011;9632;51.018;4.284;2022-10-10T10:26:24;9.02;;;2.72;;
18997;SDS011;9632;51.018;4.284;2022-10-10T10:28:54;12.82;;;3.05;;
18997;SDS011;9632;51.018;4.284;2022-10-10T10:34:32;11.63;;;3.00;;
18997;SDS011;9632;51.018;4.284;2022-10-10T10:39:52;8.77;;;2.90;;
18997;SDS011;9632;51.018;4.284;2022-10-10T10:51:00;13.35;;;3.53;;
18997;SDS011;9632;51.018;4.284;2022-10-10T10:56:58;10.00;;;2.57;;
18997;SDS011;9632;51.018;4.284;2022-10-10T10:59:49;8.43;;;2.38;;
18997;SDS011;9632;51.018;4.284;2022-10-10T11:02:40;11.98;;;2.95;;
18997;SDS011;9632;51.018;4.284;2022-10-10T11:08:46;11.45;;;2.80;;
18997;SDS011;9632;51.018;4.284;2022-10-10T11:14:25;5.97;;;2.25;;
18997;SDS011;9632;51.018;4.284;2022-10-10T11:17:13;6.75;;;2.25;;
18997;SDS011;9632;51.018;4.284;2022-10-10T11:22:21;7.00;;;2.70;;
18997;SDS011;9632;51.018;4.284;2022-10-10T11:27:33;8.77;;;2.80;;
18997;SDS011;9632;51.018;4.284;2022-10-10T11:30:22;7.25;;;2.45;;
18997;SDS011;9632;51.018;4.284;2022-10-10T11:32:54;7.95;;;2.50;;
18997;SDS011;9632;51.018;4.284;2022-10-10T11:38:12;9.45;;;2.65;;
18997;SDS011;9632;51.018;4.284;2022-10-10T11:43:42;7.25;;;2.70;;
18997;SDS011;9632;51.018;4.284;2022-10-10T11:54:40;7.90;;;2.53;;
18997;SDS011;9632;51.018;4.284;2022-10-10T11:57:17;7.68;;;2.50;;
18997;SDS011;9632;51.018;4.284;2022-10-10T12:00:14;13.85;;;3.03;;
18997;SDS011;9632;51.018;4.284;2022-10-10T12:02:41;8.98;;;2.33;;
18997;SDS011;9632;51.018;4.284;2022-10-10T12:05:22;13.15;;;2.60;;
18997;SDS011;9632;51.018;4.284;2022-10-10T12:10:48;14.25;;;2.85;;
18997;SDS011;9632;51.018;4.284;2022-10-10T12:15:57;5.93;;;2.50;;
18997;SDS011;9632;51.018;4.284;2022-10-10T12:18:50;5.38;;;2.17;;
18997;SDS011;9632;51.018;4.284;2022-10-10T12:21:17;9.52;;;2.20;;
18997;SDS011;9632;51.018;4.284;2022-10-10T12:23:46;6.80;;;2.20;;
18997;SDS011;9632;51.018;4.284;2022-10-10T12:26:23;10.15;;;2.60;;
18997;SDS011;9632;51.018;4.284;2022-10-10T12:29:09;5.95;;;2.30;;
18997;SDS011;9632;51.018;4.284;2022-10-10T12:31:36;8.75;;;2.60;;
18997;SDS011;9632;51.018;4.284;2022-10-10T12:34:04;9.27;;;2.70;;
18997;SDS011;9632;51.018;4.284;2022-10-10T12:46:42;7.95;;;2.47;;
18997;SDS011;9632;51.018;4.284;2022-10-10T12:54:47;5.85;;;2.20;;
18997;SDS011;9632;51.018;4.284;2022-10-10T12:59:54;10.48;;;3.00;;
18997;SDS011;9632;51.018;4.284;2022-10-10T13:02:26;9.40;;;2.67;;
18997;SDS011;9632;51.018;4.284;2022-10-10T13:04:53;11.45;;;3.20;;
18997;SDS011;9632;51.018;4.284;2022-10-10T13:07:22;12.63;;;3.30;;
18997;SDS011;9632;51.018;4.284;2022-10-10T13:09:51;11.73;;;3.47;;
18997;SDS011;9632;51.018;4.284;2022-10-10T13:12:24;11.38;;;3.42;;
18997;SDS011;9632;51.018;4.284;2022-10-10T13:14:52;13.55;;;3.80;;
18997;SDS011;9632;51.018;4.284;2022-10-10T13:19:47;11.45;;;4.13;;
18997;SDS011;9632;51.018;4.284;2022-10-10T13:22:13;15.77;;;4.68;;
18997;SDS011;9632;51.018;4.284;2022-10-10T13:24:42;16.90;;;4.97;;
18997;SDS011;9632;51.018;4.284;2022-10-10T13:27:15;15.18;;;5.20;;
18997;SDS011;9632;51.018;4.284;2022-10-10T13:30:00;15.82;;;4.70;;
18997;SDS011;9632;51.018;4.284;2022-10-10T13:32:32;13.10;;;4.32;;
18997;SDS011;9632;51.018;4.284;2022-10-10T13:35:01;11.88;;;4.03;;
18997;SDS011;9632;51.018;4.284;2022-10-10T13:37:30;7.07;;;3.15;;
18997;SDS011;9632;51.018;4.284;2022-10-10T13:39:56;10.07;;;3.38;;
18997;SDS011;9632;51.018;4.284;2022-10-10T13:44:52;10.63;;;3.63;;
18997;SDS011;9632;51.018;4.284;2022-10-10T13:50:23;11.70;;;3.60;;
18997;SDS011;9632;51.018;4.284;2022-10-10T13:56:17;14.70;;;5.43;;
18997;SDS011;9632;51.018;4.284;2022-10-10T13:58:56;14.73;;;5.78;;
18997;SDS011;9632;51.018;4.284;2022-10-10T14:03:56;17.45;;;6.43;;
18997;SDS011;9632;51.018;4.284;2022-10-10T14:06:28;16.90;;;5.80;;
18997;SDS011;9632;51.018;4.284;2022-10-10T14:08:55;17.00;;;5.22;;
18997;SDS011;9632;51.018;4.284;2022-10-10T14:11:29;10.20;;;3.60;;
18997;SDS011;9632;51.018;4.284;2022-10-10T14:13:59;9.80;;;3.42;;
18997;SDS011;9632;51.018;4.284;2022-10-10T14:17:01;7.35;;;2.90;;
18997;SDS011;9632;51.018;4.284;2022-10-10T14:19:29;9.48;;;2.70;;
18997;SDS011;9632;51.018;4.284;2022-10-10T14:21:55;8.82;;;2.40;;
18997;SDS011;9632;51.018;4.284;2022-10-10T14:24:20;10.95;;;2.38;;
18997;SDS011;9632;51.018;4.284;2022-10-10T14:26:46;6.03;;;2.88;;
18997;SDS011;9632;51.018;4.284;2022-10-10T14:29:12;9.88;;;2.63;;
18997;SDS011;9632;51.018;4.284;2022-10-10T14:31:39;7.70;;;2.53;;
18997;SDS011;9632;51.018;4.284;2022-10-10T14:34:07;8.23;;;2.33;;
18997;SDS011;9632;51.018;4.284;2022-10-10T14:36:34;7.95;;;1.63;;
18997;SDS011;9632;51.018;4.284;2022-10-10T14:39:02;6.78;;;1.77;;
18997;SDS011;9632;51.018;4.284;2022-10-10T14:41:28;9.20;;;1.60;;
18997;SDS011;9632;51.018;4.284;2022-10-10T14:43:54;6.07;;;1.52;;
18997;SDS011;9632;51.018;4.284;2022-10-10T14:46:19;3.47;;;1.52;;
18997;SDS011;9632;51.018;4.284;2022-10-10T14:48:45;5.65;;;1.70;;
18997;SDS011;9632;51.018;4.284;2022-10-10T14:51:11;5.45;;;1.35;;
18997;SDS011;9632;51.018;4.284;2022-10-10T14:53:37;3.13;;;1.27;;
18997;SDS011;9632;51.018;4.284;2022-10-10T14:56:04;2.20;;;0.88;;
18997;SDS011;9632;51.018;4.284;2022-10-10T14:58:30;3.25;;;1.23;;
18997;SDS011;9632;51.018;4.284;2022-10-10T15:00:55;2.33;;;0.90;;
18997;SDS011;9632;51.018;4.284;2022-10-10T15:03:21;5.10;;;0.65;;
18997;SDS011;9632;51.018;4.284;2022-10-10T15:05:47;3.33;;;0.80;;
18997;SDS011;9632;51.018;4.284;2022-10-10T15:08:13;5.15;;;0.77;;
18997;SDS011;9632;51.018;4.284;2022-10-10T15:10:40;3.88;;;0.60;;
18997;SDS011;9632;51.018;4.284;2022-10-10T15:13:08;4.00;;;0.70;;
18997;SDS011;9632;51.018;4.284;2022-10-10T15:15:35;4.30;;;0.70;;
18997;SDS011;9632;51.018;4.284;2022-10-10T15:18:00;4.00;;;0.85;;
18997;SDS011;9632;51.018;4.284;2022-10-10T15:20:26;3.95;;;0.50;;
18997;SDS011;9632;51.018;4.284;2022-10-10T15:22:58;3.72;;;0.50;;
18997;SDS011;9632;51.018;4.284;2022-10-10T15:25:26;5.68;;;0.60;;
18997;SDS011;9632;51.018;4.284;2022-10-10T15:27:52;4.65;;;0.90;;
18997;SDS011;9632;51.018;4.284;2022-10-10T15:30:18;5.65;;;0.95;;
18997;SDS011;9632;51.018;4.284;2022-10-10T15:32:44;9.07;;;1.10;;
18997;SDS011;9632;51.018;4.284;2022-10-10T15:35:12;3.58;;;0.75;;
18997;SDS011;9632;51.018;4.284;2022-10-10T15:37:40;3.88;;;0.80;;
18997;SDS011;9632;51.018;4.284;2022-10-10T15:40:06;4.45;;;0.80;;
18997;SDS011;9632;51.018;4.284;2022-10-10T15:42:32;8.23;;;0.90;;
18997;SDS011;9632;51.018;4.284;2022-10-10T15:44:58;3.13;;;0.73;;
18997;SDS011;9632;51.018;4.284;2022-10-10T15:47:24;7.70;;;0.82;;
18997;SDS011;9632;51.018;4.284;2022-10-10T15:49:49;3.45;;;0.73;;
18997;SDS011;9632;51.018;4.284;2022-10-10T15:52:15;5.70;;;0.90;;
18997;SDS011;9632;51.018;4.284;2022-10-10T15:54:42;5.50;;;1.08;;
18997;SDS011;9632;51.018;4.284;2022-10-10T15:57:07;6.47;;;1.15;;
18997;SDS011;9632;51.018;4.284;2022-10-10T15:59:33;3.30;;;1.00;;
18997;SDS011;9632;51.018;4.284;2022-10-10T16:02:00;8.38;;;1.05;;
18997;SDS011;9632;51.018;4.284;2022-10-10T16:04:25;8.75;;;1.55;;
18997;SDS011;9632;51.018;4.284;2022-10-10T16:06:51;8.07;;;1.00;;
18997;SDS011;9632;51.018;4.284;2022-10-10T16:09:18;5.97;;;1.30;;
18997;SDS011;9632;51.018;4.284;2022-10-10T16:11:44;5.45;;;0.98;;
18997;SDS011;9632;51.018;4.284;2022-10-10T16:14:09;10.52;;;1.13;;
18997;SDS011;9632;51.018;4.284;2022-10-10T16:16:35;7.45;;;1.65;;
18997;SDS011;9632;51.018;4.284;2022-10-10T16:19:01;6.22;;;1.42;;
18997;SDS011;9632;51.018;4.284;2022-10-10T16:21:26;7.85;;;1.38;;
18997;SDS011;9632;51.018;4.284;2022-10-10T16:23:53;5.00;;;1.00;;
18997;SDS011;9632;51.018;4.284;2022-10-10T16:26:20;6.22;;;1.33;;
18997;SDS011;9632;51.018;4.284;2022-10-10T16:28:47;7.63;;;1.50;;
18997;SDS011;9632;51.018;4.284;2022-10-10T16:31:15;6.45;;;1.30;;
18997;SDS011;9632;51.018;4.284;2022-10-10T16:33:42;5.65;;;1.10;;
18997;SDS011;9632;51.018;4.284;2022-10-10T16:38:42;8.32;;;1.63;;
18997;SDS011;9632;51.018;4.284;2022-10-10T16:41:09;7.18;;;1.85;;
18997;SDS011;9632;51.018;4.284;2022-10-10T16:43:40;6.10;;;2.33;;
18997;SDS011;9632;51.018;4.284;2022-10-10T16:46:07;8.48;;;2.80;;
18997;SDS011;9632;51.018;4.284;2022-10-10T16:48:35;7.38;;;2.47;;
18997;SDS011;9632;51.018;4.284;2022-10-10T16:51:05;9.23;;;2.58;;
18997;SDS011;9632;51.018;4.284;2022-10-10T16:53:33;6.65;;;2.53;;
18997;SDS011;9632;51.018;4.284;2022-10-10T16:56:00;7.45;;;2.20;;
18997;SDS011;9632;51.018;4.284;2022-10-10T16:58:27;8.85;;;2.40;;
18997;SDS011;9632;51.018;4.284;2022-10-10T17:00:54;5.97;;;1.65;;
18997;SDS011;9632;51.018;4.284;2022-10-10T17:03:20;6.82;;;1.40;;
18997;SDS011;9632;51.018;4.284;2022-10-10T17:05:45;7.65;;;1.38;;
18997;SDS011;9632;51.018;4.284;2022-10-10T17:08:11;10.82;;;1.13;;
18997;SDS011;9632;51.018;4.284;2022-10-10T17:10:37;6.80;;;1.38;;
18997;SDS011;9632;51.018;4.284;2022-10-10T17:13:03;7.47;;;1.45;;
18997;SDS011;9632;51.018;4.284;2022-10-10T17:15:29;12.65;;;1.77;;
18997;SDS011;9632;51.018;4.284;2022-10-10T17:17:54;8.93;;;1.63;;
18997;SDS011;9632;51.018;4.284;2022-10-10T17:20:20;14.88;;;2.03;;
18997;SDS011;9632;51.018;4.284;2022-10-10T17:22:46;10.45;;;1.75;;
18997;SDS011;9632;51.018;4.284;2022-10-10T17:25:12;9.07;;;1.90;;
18997;SDS011;9632;51.018;4.284;2022-10-10T17:27:38;13.35;;;1.77;;